sensor_id;sensor_type;location;lat;lon;timestamp;pressure;altitude;pressure_sealevel;temperature;humidity
82171;BME280;71755;48.038;14.346;2023-10-19T00:01:15;96226.47;;;7.17;82.41
82171;BME280;71755;48.038;14.346;2023-10-19T00:03:42;96215.03;;;7.17;83.05
82171;BME280;71755;48.038;14.346;2023-10-19T00:06:10;96208.13;;;7.16;83.00
82171;BME280;71755;48.038;14.346;2023-10-19T00:08:38;96209.16;;;7.10;83.04
82171;BME280;71755;48.038;14.346;2023-10-19T00:11:10;96212.06;;;7.08;83.16
82171;BME280;71755;48.038;14.346;2023-10-19T00:13:47;96208.63;;;7.08;83.40
82171;BME280;71755;48.038;14.346;2023-10-19T00:16:16;96196.41;;;7.07;83.40
82171;BME280;71755;48.038;14.346;2023-10-19T00:18:46;96198.47;;;7.05;83.52
82171;BME280;71755;48.038;14.346;2023-10-19T00:21:14;96187.81;;;7.00;83.78
82171;BME280;71755;48.038;14.346;2023-10-19T00:23:52;96181.44;;;6.96;83.61
82171;BME280;71755;48.038;14.346;2023-10-19T00:26:26;96192.03;;;6.96;83.41
82171;BME280;71755;48.038;14.346;2023-10-19T00:28:55;96185.13;;;6.95;83.22
82171;BME280;71755;48.038;14.346;2023-10-19T00:31:25;96185.66;;;6.92;83.75
82171;BME280;71755;48.038;14.346;2023-10-19T00:33:55;96178.75;;;6.90;83.51
82171;BME280;71755;48.038;14.346;2023-10-19T00:36:22;96180.81;;;6.83;83.59
82171;BME280;71755;48.038;14.346;2023-10-19T00:38:49;96172.84;;;6.83;83.56
82171;BME280;71755;48.038;14.346;2023-10-19T00:41:21;96164.84;;;6.78;83.83
82171;BME280;71755;48.038;14.346;2023-10-19T00:43:57;96168.56;;;6.77;83.87
82171;BME280;71755;48.038;14.346;2023-10-19T00:46:28;96163.25;;;6.77;83.89
82171;BME280;71755;48.038;14.346;2023-10-19T00:49:16;96163.50;;;6.76;83.86
82171;BME280;71755;48.038;14.346;2023-10-19T00:51:45;96162.72;;;6.75;84.26
82171;BME280;71755;48.038;14.346;2023-10-19T00:54:23;96161.66;;;6.76;84.01
82171;BME280;71755;48.038;14.346;2023-10-19T00:57:03;96150.50;;;6.74;84.07
82171;BME280;71755;48.038;14.346;2023-10-19T00:59:40;96142.97;;;6.66;84.23
82171;BME280;71755;48.038;14.346;2023-10-19T01:02:14;96138.19;;;6.63;84.33
82171;BME280;71755;48.038;14.346;2023-10-19T01:04:52;96141.34;;;6.60;84.47
82171;BME280;71755;48.038;14.346;2023-10-19T01:07:21;96131.75;;;6.54;85.08
82171;BME280;71755;48.038;14.346;2023-10-19T01:09:49;96125.88;;;6.47;84.86
82171;BME280;71755;48.038;14.346;2023-10-19T01:12:19;96128.47;;;6.42;85.11
82171;BME280;71755;48.038;14.346;2023-10-19T01:17:47;96116.81;;;6.43;85.17
82171;BME280;71755;48.038;14.346;2023-10-19T01:20:24;96114.16;;;6.43;85.10
82171;BME280;71755;48.038;14.346;2023-10-19T01:23:04;96113.06;;;6.39;85.21
82171;BME280;71755;48.038;14.346;2023-10-19T01:28:17;96094.38;;;6.23;85.76
82171;BME280;71755;48.038;14.346;2023-10-19T01:30:45;96094.38;;;6.23;85.88
82171;BME280;71755;48.038;14.346;2023-10-19T01:33:11;96085.91;;;6.26;85.80
82171;BME280;71755;48.038;14.346;2023-10-19T01:35:45;96080.56;;;6.21;85.24
82171;BME280;71755;48.038;14.346;2023-10-19T01:38:30;96083.72;;;6.18;85.61
82171;BME280;71755;48.038;14.346;2023-10-19T01:40:58;96078.66;;;6.17;85.64
82171;BME280;71755;48.038;14.346;2023-10-19T01:43:27;96081.31;;;6.17;85.92
82171;BME280;71755;48.038;14.346;2023-10-19T01:46:01;96078.66;;;6.17;85.59
82171;BME280;71755;48.038;14.346;2023-10-19T01:48:40;96085.25;;;6.09;85.82
82171;BME280;71755;48.038;14.346;2023-10-19T01:51:10;96079.91;;;6.04;85.82
82171;BME280;71755;48.038;14.346;2023-10-19T01:53:40;96091.28;;;6.05;85.89
82171;BME280;71755;48.038;14.346;2023-10-19T01:56:11;96083.31;;;6.00;85.97
82171;BME280;71755;48.038;14.346;2023-10-19T01:58:39;96083.56;;;5.98;86.39
82171;BME280;71755;48.038;14.346;2023-10-19T02:01:07;96074.81;;;5.98;86.40
82171;BME280;71755;48.038;14.346;2023-10-19T02:03:43;96070.84;;;6.00;86.61
82171;BME280;71755;48.038;14.346;2023-10-19T02:06:14;96071.75;;;5.89;86.54
82171;BME280;71755;48.038;14.346;2023-10-19T02:11:23;96063.25;;;5.87;86.32
82171;BME280;71755;48.038;14.346;2023-10-19T02:13:52;96059.00;;;5.86;85.86
82171;BME280;71755;48.038;14.346;2023-10-19T02:16:19;96059.50;;;5.83;86.11
82171;BME280;71755;48.038;14.346;2023-10-19T02:18:52;96059.75;;;5.81;86.41
82171;BME280;71755;48.038;14.346;2023-10-19T02:21:19;96056.56;;;5.79;86.63
82171;BME280;71755;48.038;14.346;2023-10-19T02:23:49;96052.56;;;5.77;86.84
82171;BME280;71755;48.038;14.346;2023-10-19T02:26:21;96054.06;;;5.68;87.04
82171;BME280;71755;48.038;14.346;2023-10-19T02:28:53;96055.69;;;5.69;86.90
82171;BME280;71755;48.038;14.346;2023-10-19T02:31:22;96051.97;;;5.70;86.72
82171;BME280;71755;48.038;14.346;2023-10-19T02:33:52;96050.66;;;5.72;86.74
82171;BME280;71755;48.038;14.346;2023-10-19T02:36:25;96049.81;;;5.67;86.78
82171;BME280;71755;48.038;14.346;2023-10-19T02:38:56;96055.00;;;5.56;87.17
82171;BME280;71755;48.038;14.346;2023-10-19T02:41:26;96044.03;;;5.21;87.83
82171;BME280;71755;48.038;14.346;2023-10-19T02:43:53;96048.34;;;5.27;88.01
82171;BME280;71755;48.038;14.346;2023-10-19T02:46:36;96045.44;;;5.28;88.33
82171;BME280;71755;48.038;14.346;2023-10-19T02:49:07;96049.44;;;5.31;88.36
82171;BME280;71755;48.038;14.346;2023-10-19T02:51:41;96051.59;;;5.34;87.79
82171;BME280;71755;48.038;14.346;2023-10-19T02:54:11;96050.00;;;5.11;89.03
82171;BME280;71755;48.038;14.346;2023-10-19T02:56:54;96045.41;;;5.23;88.97
82171;BME280;71755;48.038;14.346;2023-10-19T02:59:24;96035.34;;;5.25;88.88
82171;BME280;71755;48.038;14.346;2023-10-19T03:01:52;96040.47;;;5.32;88.92
82171;BME280;71755;48.038;14.346;2023-10-19T03:04:29;96034.09;;;5.33;89.31
82171;BME280;71755;48.038;14.346;2023-10-19T03:06:56;96030.66;;;5.32;89.13
82171;BME280;71755;48.038;14.346;2023-10-19T03:09:22;96029.91;;;5.37;88.83
82171;BME280;71755;48.038;14.346;2023-10-19T03:11:54;96024.66;;;5.42;88.68
82171;BME280;71755;48.038;14.346;2023-10-19T03:14:22;96026.28;;;5.43;88.15
82171;BME280;71755;48.038;14.346;2023-10-19T03:16:52;96023.03;;;5.36;87.96
82171;BME280;71755;48.038;14.346;2023-10-19T03:19:20;96020.88;;;5.33;88.01
82171;BME280;71755;48.038;14.346;2023-10-19T03:21:46;96012.38;;;5.31;88.07
82171;BME280;71755;48.038;14.346;2023-10-19T03:24:16;96013.47;;;5.35;88.00
82171;BME280;71755;48.038;14.346;2023-10-19T03:27:02;96011.78;;;5.24;87.92
82171;BME280;71755;48.038;14.346;2023-10-19T03:29:34;96010.78;;;5.30;87.70
82171;BME280;71755;48.038;14.346;2023-10-19T03:32:07;96005.97;;;5.27;87.65
82171;BME280;71755;48.038;14.346;2023-10-19T03:34:35;96004.88;;;5.23;87.35
82171;BME280;71755;48.038;14.346;2023-10-19T03:37:01;96007.94;;;5.15;87.55
82171;BME280;71755;48.038;14.346;2023-10-19T03:39:35;96001.06;;;5.14;87.88
82171;BME280;71755;48.038;14.346;2023-10-19T03:42:06;95997.84;;;5.12;88.06
82171;BME280;71755;48.038;14.346;2023-10-19T03:44:33;95991.47;;;5.08;88.44
82171;BME280;71755;48.038;14.346;2023-10-19T03:47:16;95983.53;;;5.08;87.91
82171;BME280;71755;48.038;14.346;2023-10-19T03:49:47;95978.47;;;5.06;87.60
82171;BME280;71755;48.038;14.346;2023-10-19T03:52:14;95972.09;;;5.02;87.09
82171;BME280;71755;48.038;14.346;2023-10-19T03:54:40;95971.53;;;5.00;86.70
82171;BME280;71755;48.038;14.346;2023-10-19T03:57:08;95973.09;;;4.96;87.01
82171;BME280;71755;48.038;14.346;2023-10-19T03:59:41;95973.31;;;4.94;87.38
82171;BME280;71755;48.038;14.346;2023-10-19T04:02:08;95969.34;;;4.92;87.41
82171;BME280;71755;48.038;14.346;2023-10-19T04:04:45;95979.78;;;4.82;87.83
82171;BME280;71755;48.038;14.346;2023-10-19T04:07:17;95993.19;;;4.75;88.67
82171;BME280;71755;48.038;14.346;2023-10-19T04:09:55;96006.34;;;4.70;88.77
82171;BME280;71755;48.038;14.346;2023-10-19T04:12:36;95988.38;;;4.72;88.90
82171;BME280;71755;48.038;14.346;2023-10-19T04:15:06;95982.41;;;4.82;88.95
82171;BME280;71755;48.038;14.346;2023-10-19T04:17:45;95986.19;;;4.86;88.99
82171;BME280;71755;48.038;14.346;2023-10-19T04:20:12;95981.88;;;4.80;89.09
82171;BME280;71755;48.038;14.346;2023-10-19T04:22:49;95984.16;;;4.71;89.29
82171;BME280;71755;48.038;14.346;2023-10-19T04:25:16;95984.09;;;4.66;89.10
82171;BME280;71755;48.038;14.346;2023-10-19T04:27:42;95970.97;;;4.76;88.76
82171;BME280;71755;48.038;14.346;2023-10-19T04:30:10;95959.34;;;4.77;88.28
82171;BME280;71755;48.038;14.346;2023-10-19T04:32:50;95958.81;;;4.75;88.21
82171;BME280;71755;48.038;14.346;2023-10-19T04:35:17;95954.56;;;4.74;88.20
82171;BME280;71755;48.038;14.346;2023-10-19T04:40:17;95961.94;;;4.72;88.10
82171;BME280;71755;48.038;14.346;2023-10-19T04:42:43;95952.09;;;4.67;88.10
82171;BME280;71755;48.038;14.346;2023-10-19T04:45:10;95958.63;;;4.60;88.37
82171;BME280;71755;48.038;14.346;2023-10-19T04:47:38;95952.03;;;4.62;88.36
82171;BME280;71755;48.038;14.346;2023-10-19T04:50:06;95961.03;;;4.61;88.49
82171;BME280;71755;48.038;14.346;2023-10-19T04:52:33;95965.50;;;4.61;89.18
82171;BME280;71755;48.038;14.346;2023-10-19T04:55:00;95955.25;;;4.64;89.15
82171;BME280;71755;48.038;14.346;2023-10-19T04:57:27;95958.69;;;4.65;89.48
82171;BME280;71755;48.038;14.346;2023-10-19T04:59:53;95963.31;;;4.53;90.12
82171;BME280;71755;48.038;14.346;2023-10-19T05:02:19;95951.63;;;4.49;90.17
82171;BME280;71755;48.038;14.346;2023-10-19T05:04:45;95954.03;;;4.33;91.35
82171;BME280;71755;48.038;14.346;2023-10-19T05:07:11;95958.09;;;4.19;92.40
82171;BME280;71755;48.038;14.346;2023-10-19T05:09:44;95952.63;;;4.26;92.64
82171;BME280;71755;48.038;14.346;2023-10-19T05:12:11;95953.72;;;4.30;92.41
82171;BME280;71755;48.038;14.346;2023-10-19T05:14:38;95947.66;;;4.29;92.80
82171;BME280;71755;48.038;14.346;2023-10-19T05:17:05;95952.69;;;4.31;93.05
82171;BME280;71755;48.038;14.346;2023-10-19T05:19:39;95946.59;;;4.30;93.19
82171;BME280;71755;48.038;14.346;2023-10-19T05:22:07;95951.47;;;4.38;93.08
82171;BME280;71755;48.038;14.346;2023-10-19T05:24:33;95957.91;;;4.26;93.05
82171;BME280;71755;48.038;14.346;2023-10-19T05:27:00;95955.63;;;4.34;92.52
82171;BME280;71755;48.038;14.346;2023-10-19T05:29:26;95951.16;;;4.35;92.56
82171;BME280;71755;48.038;14.346;2023-10-19T05:31:53;95961.25;;;4.38;92.90
82171;BME280;71755;48.038;14.346;2023-10-19T05:34:24;95964.06;;;4.31;93.25
82171;BME280;71755;48.038;14.346;2023-10-19T05:36:52;95960.69;;;4.36;93.26
82171;BME280;71755;48.038;14.346;2023-10-19T05:39:20;95967.94;;;5.11;96.53
82171;BME280;71755;48.038;14.346;2023-10-19T05:41:47;95956.78;;;5.58;97.84
82171;BME280;71755;48.038;14.346;2023-10-19T05:44:13;95956.84;;;5.68;98.18
82171;BME280;71755;48.038;14.346;2023-10-19T05:46:39;95953.28;;;5.57;97.89
82171;BME280;71755;48.038;14.346;2023-10-19T05:49:06;95954.81;;;5.48;97.77
82171;BME280;71755;48.038;14.346;2023-10-19T05:51:33;95959.34;;;5.21;96.25
82171;BME280;71755;48.038;14.346;2023-10-19T05:53:59;95963.03;;;4.98;94.74
82171;BME280;71755;48.038;14.346;2023-10-19T05:56:29;95963.34;;;4.80;93.18
82171;BME280;71755;48.038;14.346;2023-10-19T05:58:56;95959.34;;;4.77;92.26
82171;BME280;71755;48.038;14.346;2023-10-19T06:01:23;95962.56;;;4.79;91.69
82171;BME280;71755;48.038;14.346;2023-10-19T06:03:50;95957.75;;;4.76;91.46
82171;BME280;71755;48.038;14.346;2023-10-19T06:06:17;95955.66;;;4.78;91.74
82171;BME280;71755;48.038;14.346;2023-10-19T06:08:43;95959.28;;;4.72;92.05
82171;BME280;71755;48.038;14.346;2023-10-19T06:11:10;95965.13;;;4.74;92.06
82171;BME280;71755;48.038;14.346;2023-10-19T06:13:36;95969.31;;;4.70;91.95
82171;BME280;71755;48.038;14.346;2023-10-19T06:16:03;95977.63;;;4.79;91.14
82171;BME280;71755;48.038;14.346;2023-10-19T06:18:29;95971.03;;;4.81;90.92
82171;BME280;71755;48.038;14.346;2023-10-19T06:20:56;95968.81;;;4.73;91.38
82171;BME280;71755;48.038;14.346;2023-10-19T06:23:22;95975.09;;;4.67;91.77
82171;BME280;71755;48.038;14.346;2023-10-19T06:25:48;95959.53;;;4.70;91.77
82171;BME280;71755;48.038;14.346;2023-10-19T06:28:17;95968.53;;;4.69;92.67
82171;BME280;71755;48.038;14.346;2023-10-19T06:30:43;95971.28;;;4.58;93.73
82171;BME280;71755;48.038;14.346;2023-10-19T06:33:10;95964.41;;;4.57;94.04
82171;BME280;71755;48.038;14.346;2023-10-19T06:35:37;95962.06;;;4.60;93.97
82171;BME280;71755;48.038;14.346;2023-10-19T06:38:03;95969.38;;;4.53;94.80
82171;BME280;71755;48.038;14.346;2023-10-19T06:40:30;95961.22;;;4.55;95.74
82171;BME280;71755;48.038;14.346;2023-10-19T06:42:59;95967.00;;;4.52;96.34
82171;BME280;71755;48.038;14.346;2023-10-19T06:45:28;95966.03;;;4.41;96.60
82171;BME280;71755;48.038;14.346;2023-10-19T06:47:57;95960.66;;;4.53;96.89
82171;BME280;71755;48.038;14.346;2023-10-19T06:50:24;95959.72;;;4.64;96.90
82171;BME280;71755;48.038;14.346;2023-10-19T06:52:51;95949.81;;;4.76;96.52
82171;BME280;71755;48.038;14.346;2023-10-19T06:55:19;95937.34;;;4.93;96.25
82171;BME280;71755;48.038;14.346;2023-10-19T06:57:53;95939.34;;;5.08;96.13
82171;BME280;71755;48.038;14.346;2023-10-19T07:00:22;95936.53;;;5.20;95.85
82171;BME280;71755;48.038;14.346;2023-10-19T07:02:49;95935.34;;;5.32;94.98
82171;BME280;71755;48.038;14.346;2023-10-19T07:05:21;95930.63;;;5.40;94.55
82171;BME280;71755;48.038;14.346;2023-10-19T07:07:51;95936.28;;;5.48;94.05
82171;BME280;71755;48.038;14.346;2023-10-19T07:10:20;95948.81;;;5.58;93.45
82171;BME280;71755;48.038;14.346;2023-10-19T07:12:54;95948.66;;;5.70;93.03
82171;BME280;71755;48.038;14.346;2023-10-19T07:15:21;95944.47;;;5.79;92.62
82171;BME280;71755;48.038;14.346;2023-10-19T07:17:49;95949.81;;;5.84;91.68
82171;BME280;71755;48.038;14.346;2023-10-19T07:20:18;95947.25;;;5.94;91.46
82171;BME280;71755;48.038;14.346;2023-10-19T07:23:03;95960.88;;;6.03;90.83
82171;BME280;71755;48.038;14.346;2023-10-19T07:25:36;95958.25;;;6.08;90.28
82171;BME280;71755;48.038;14.346;2023-10-19T07:28:14;95953.78;;;6.13;90.18
82171;BME280;71755;48.038;14.346;2023-10-19T07:30:42;95948.50;;;6.18;89.73
82171;BME280;71755;48.038;14.346;2023-10-19T07:33:11;95950.13;;;6.24;89.35
82171;BME280;71755;48.038;14.346;2023-10-19T07:35:47;95955.78;;;6.33;90.19
82171;BME280;71755;48.038;14.346;2023-10-19T07:38:14;95956.06;;;6.42;89.79
82171;BME280;71755;48.038;14.346;2023-10-19T07:40:40;95951.34;;;6.49;89.42
82171;BME280;71755;48.038;14.346;2023-10-19T07:43:07;95949.75;;;6.53;89.40
82171;BME280;71755;48.038;14.346;2023-10-19T07:45:34;95947.38;;;6.51;89.37
82171;BME280;71755;48.038;14.346;2023-10-19T07:48:00;95940.25;;;6.62;88.86
82171;BME280;71755;48.038;14.346;2023-10-19T07:50:36;95937.66;;;6.72;88.56
82171;BME280;71755;48.038;14.346;2023-10-19T07:53:03;95932.38;;;6.82;88.36
82171;BME280;71755;48.038;14.346;2023-10-19T07:55:30;95934.50;;;6.85;87.69
82171;BME280;71755;48.038;14.346;2023-10-19T07:58:00;95941.47;;;7.02;87.88
82171;BME280;71755;48.038;14.346;2023-10-19T08:00:27;95925.50;;;6.97;88.44
82171;BME280;71755;48.038;14.346;2023-10-19T08:02:55;95931.91;;;7.06;88.18
82171;BME280;71755;48.038;14.346;2023-10-19T08:05:21;95933.28;;;7.18;87.57
82171;BME280;71755;48.038;14.346;2023-10-19T08:07:48;95935.69;;;7.25;86.92
82171;BME280;71755;48.038;14.346;2023-10-19T08:10:16;95939.41;;;7.34;86.75
82171;BME280;71755;48.038;14.346;2023-10-19T08:12:43;95942.59;;;7.36;86.33
82171;BME280;71755;48.038;14.346;2023-10-19T08:15:14;95934.13;;;7.44;86.23
82171;BME280;71755;48.038;14.346;2023-10-19T08:17:51;95926.16;;;7.49;86.21
82171;BME280;71755;48.038;14.346;2023-10-19T08:20:20;95930.69;;;7.59;85.94
82171;BME280;71755;48.038;14.346;2023-10-19T08:22:51;95920.59;;;7.66;85.32
82171;BME280;71755;48.038;14.346;2023-10-19T08:25:19;95916.88;;;7.67;85.25
82171;BME280;71755;48.038;14.346;2023-10-19T08:27:47;95919.53;;;7.72;85.11
82171;BME280;71755;48.038;14.346;2023-10-19T08:30:21;95910.75;;;7.77;84.57
82171;BME280;71755;48.038;14.346;2023-10-19T08:32:47;95922.19;;;7.82;84.45
82171;BME280;71755;48.038;14.346;2023-10-19T08:35:19;95915.56;;;7.85;84.13
82171;BME280;71755;48.038;14.346;2023-10-19T08:37:52;95921.66;;;7.96;83.88
82171;BME280;71755;48.038;14.346;2023-10-19T08:40:20;95926.69;;;8.07;84.28
82171;BME280;71755;48.038;14.346;2023-10-19T08:42:47;95917.91;;;8.02;84.92
82171;BME280;71755;48.038;14.346;2023-10-19T08:45:14;95923.22;;;8.12;84.80
82171;BME280;71755;48.038;14.346;2023-10-19T08:47:59;95923.47;;;8.15;84.57
82171;BME280;71755;48.038;14.346;2023-10-19T08:50:29;95925.63;;;8.19;84.08
82171;BME280;71755;48.038;14.346;2023-10-19T08:52:57;95922.41;;;8.22;83.70
82171;BME280;71755;48.038;14.346;2023-10-19T08:55:24;95912.84;;;8.26;83.83
82171;BME280;71755;48.038;14.346;2023-10-19T08:57:52;95912.84;;;8.26;83.10
82171;BME280;71755;48.038;14.346;2023-10-19T09:00:19;95910.16;;;8.31;82.91
82171;BME280;71755;48.038;14.346;2023-10-19T09:02:48;95907.75;;;8.39;83.76
82171;BME280;71755;48.038;14.346;2023-10-19T09:05:14;95903.50;;;8.38;83.23
82171;BME280;71755;48.038;14.346;2023-10-19T09:07:55;95916.00;;;8.38;83.75
82171;BME280;71755;48.038;14.346;2023-10-19T09:10:26;95919.16;;;8.50;83.42
82171;BME280;71755;48.038;14.346;2023-10-19T09:13:18;95925.03;;;8.47;83.15
82171;BME280;71755;48.038;14.346;2023-10-19T09:15:44;95927.16;;;8.55;82.74
82171;BME280;71755;48.038;14.346;2023-10-19T09:18:17;95925.53;;;8.64;82.48
82171;BME280;71755;48.038;14.346;2023-10-19T09:20:46;95925.78;;;8.68;82.15
82171;BME280;71755;48.038;14.346;2023-10-19T09:23:20;95916.16;;;8.77;82.47
82171;BME280;71755;48.038;14.346;2023-10-19T09:25:51;95908.38;;;8.86;81.88
82171;BME280;71755;48.038;14.346;2023-10-19T09:28:24;95908.88;;;8.98;81.89
82171;BME280;71755;48.038;14.346;2023-10-19T09:30:51;95906.41;;;9.12;81.48
82171;BME280;71755;48.038;14.346;2023-10-19T09:33:18;95907.22;;;9.07;81.17
82171;BME280;71755;48.038;14.346;2023-10-19T09:35:48;95899.50;;;9.05;81.38
82171;BME280;71755;48.038;14.346;2023-10-19T09:38:18;95898.72;;;9.05;80.79
82171;BME280;71755;48.038;14.346;2023-10-19T09:40:51;95900.59;;;9.04;80.46
82171;BME280;71755;48.038;14.346;2023-10-19T09:43:43;95898.16;;;9.08;81.29
82171;BME280;71755;48.038;14.346;2023-10-19T09:46:11;95892.28;;;9.11;82.02
82171;BME280;71755;48.038;14.346;2023-10-19T09:48:42;95892.69;;;9.28;81.78
82171;BME280;71755;48.038;14.346;2023-10-19T09:51:11;95902.81;;;9.31;82.06
82171;BME280;71755;48.038;14.346;2023-10-19T09:53:39;95903.53;;;9.42;80.46
82171;BME280;71755;48.038;14.346;2023-10-19T09:56:08;95906.84;;;9.24;81.03
82171;BME280;71755;48.038;14.346;2023-10-19T09:58:45;95913.50;;;9.31;81.24
82171;BME280;71755;48.038;14.346;2023-10-19T10:01:12;95912.56;;;9.46;81.19
82171;BME280;71755;48.038;14.346;2023-10-19T10:03:42;95905.53;;;9.60;80.84
82171;BME280;71755;48.038;14.346;2023-10-19T10:06:10;95898.66;;;9.54;80.30
82171;BME280;71755;48.038;14.346;2023-10-19T10:08:39;95893.31;;;9.54;79.93
82171;BME280;71755;48.038;14.346;2023-10-19T10:11:19;95882.66;;;9.54;79.68
82171;BME280;71755;48.038;14.346;2023-10-19T10:13:47;95886.13;;;9.55;79.01
82171;BME280;71755;48.038;14.346;2023-10-19T10:16:26;95882.69;;;9.49;79.25
82171;BME280;71755;48.038;14.346;2023-10-19T10:18:58;95877.56;;;9.58;79.72
82171;BME280;71755;48.038;14.346;2023-10-19T10:21:28;95869.34;;;9.54;80.24
82171;BME280;71755;48.038;14.346;2023-10-19T10:23:57;95863.13;;;9.64;80.25
82171;BME280;71755;48.038;14.346;2023-10-19T10:26:25;95860.09;;;9.76;80.05
82171;BME280;71755;48.038;14.346;2023-10-19T10:29:15;95852.75;;;9.91;79.73
82171;BME280;71755;48.038;14.346;2023-10-19T10:31:50;95853.19;;;9.98;79.82
82171;BME280;71755;48.038;14.346;2023-10-19T10:37:08;95847.56;;;10.05;79.12
82171;BME280;71755;48.038;14.346;2023-10-19T10:39:36;95848.88;;;10.08;78.57
82171;BME280;71755;48.038;14.346;2023-10-19T10:42:04;95836.03;;;10.10;78.54
82171;BME280;71755;48.038;14.346;2023-10-19T10:44:45;95830.03;;;10.23;78.38
82171;BME280;71755;48.038;14.346;2023-10-19T10:47:20;95830.59;;;10.20;78.23
82171;BME280;71755;48.038;14.346;2023-10-19T10:49:58;95826.06;;;10.20;78.19
82171;BME280;71755;48.038;14.346;2023-10-19T10:54:58;95821.09;;;10.09;78.41
82171;BME280;71755;48.038;14.346;2023-10-19T10:57:34;95803.44;;;10.13;78.26
82171;BME280;71755;48.038;14.346;2023-10-19T11:00:11;95798.69;;;10.10;78.04
82171;BME280;71755;48.038;14.346;2023-10-19T11:02:42;95794.16;;;10.10;78.50
82171;BME280;71755;48.038;14.346;2023-10-19T11:05:10;95788.59;;;10.07;79.54
82171;BME280;71755;48.038;14.346;2023-10-19T11:08:12;95778.13;;;10.10;80.57
82171;BME280;71755;48.038;14.346;2023-10-19T11:10:47;95781.81;;;10.14;79.68
82171;BME280;71755;48.038;14.346;2023-10-19T11:13:16;95779.94;;;10.15;80.41
82171;BME280;71755;48.038;14.346;2023-10-19T11:15:53;95779.84;;;10.25;80.17
82171;BME280;71755;48.038;14.346;2023-10-19T11:21:05;95768.78;;;10.55;79.24
82171;BME280;71755;48.038;14.346;2023-10-19T11:23:49;95749.31;;;10.74;79.07
82171;BME280;71755;48.038;14.346;2023-10-19T11:26:21;95743.88;;;10.98;77.81
82171;BME280;71755;48.038;14.346;2023-10-19T11:28:57;95740.31;;;11.21;77.01
82171;BME280;71755;48.038;14.346;2023-10-19T11:31:23;95744.00;;;11.39;75.45
82171;BME280;71755;48.038;14.346;2023-10-19T11:33:51;95745.34;;;11.55;75.99
82171;BME280;71755;48.038;14.346;2023-10-19T11:36:18;95749.13;;;11.68;75.30
82171;BME280;71755;48.038;14.346;2023-10-19T11:38:47;95730.44;;;11.81;74.50
82171;BME280;71755;48.038;14.346;2023-10-19T11:41:14;95731.13;;;12.14;74.62
82171;BME280;71755;48.038;14.346;2023-10-19T11:43:42;95742.00;;;12.45;71.58
82171;BME280;71755;48.038;14.346;2023-10-19T11:46:09;95731.63;;;12.16;72.40
82171;BME280;71755;48.038;14.346;2023-10-19T11:48:36;95728.25;;;12.11;71.29
82171;BME280;71755;48.038;14.346;2023-10-19T11:51:03;95724.22;;;12.00;71.78
82171;BME280;71755;48.038;14.346;2023-10-19T11:53:34;95744.19;;;11.75;72.71
82171;BME280;71755;48.038;14.346;2023-10-19T11:56:03;95748.34;;;11.67;74.05
82171;BME280;71755;48.038;14.346;2023-10-19T11:58:36;95735.66;;;11.59;73.76
82171;BME280;71755;48.038;14.346;2023-10-19T12:01:10;95742.09;;;11.58;74.05
82171;BME280;71755;48.038;14.346;2023-10-19T12:03:42;95738.78;;;11.47;74.55
82171;BME280;71755;48.038;14.346;2023-10-19T12:06:12;95726.59;;;11.41;74.91
82171;BME280;71755;48.038;14.346;2023-10-19T12:08:44;95724.63;;;11.47;74.93
82171;BME280;71755;48.038;14.346;2023-10-19T12:11:10;95714.91;;;11.51;74.79
82171;BME280;71755;48.038;14.346;2023-10-19T12:13:45;95699.97;;;11.50;74.51
82171;BME280;71755;48.038;14.346;2023-10-19T12:16:15;95695.19;;;11.47;75.00
82171;BME280;71755;48.038;14.346;2023-10-19T12:18:42;95706.53;;;11.57;74.72
82171;BME280;71755;48.038;14.346;2023-10-19T12:21:09;95704.16;;;11.56;75.81
82171;BME280;71755;48.038;14.346;2023-10-19T12:23:43;95695.34;;;11.69;75.73
82171;BME280;71755;48.038;14.346;2023-10-19T12:26:10;95706.53;;;11.71;76.03
82171;BME280;71755;48.038;14.346;2023-10-19T12:28:41;95699.81;;;11.87;75.92
82171;BME280;71755;48.038;14.346;2023-10-19T12:31:08;95694.22;;;12.25;73.99
82171;BME280;71755;48.038;14.346;2023-10-19T12:33:35;95694.94;;;12.67;72.31
82171;BME280;71755;48.038;14.346;2023-10-19T12:36:02;95692.50;;;12.79;71.96
82171;BME280;71755;48.038;14.346;2023-10-19T12:38:48;95684.16;;;12.80;71.44
82171;BME280;71755;48.038;14.346;2023-10-19T12:41:15;95671.38;;;12.77;71.33
82171;BME280;71755;48.038;14.346;2023-10-19T12:43:41;95673.50;;;12.67;72.33
82171;BME280;71755;48.038;14.346;2023-10-19T12:46:07;95685.81;;;12.68;72.21
82171;BME280;71755;48.038;14.346;2023-10-19T12:48:34;95686.84;;;12.80;71.23
82171;BME280;71755;48.038;14.346;2023-10-19T12:51:01;95684.00;;;12.77;71.17
82171;BME280;71755;48.038;14.346;2023-10-19T12:53:29;95679.53;;;12.95;71.24
82171;BME280;71755;48.038;14.346;2023-10-19T12:55:55;95672.16;;;13.00;70.66
82171;BME280;71755;48.038;14.346;2023-10-19T12:58:21;95669.00;;;12.98;70.98
82171;BME280;71755;48.038;14.346;2023-10-19T13:00:47;95673.75;;;13.24;70.69
82171;BME280;71755;48.038;14.346;2023-10-19T13:03:14;95672.47;;;13.43;70.00
82171;BME280;71755;48.038;14.346;2023-10-19T13:05:42;95662.56;;;14.01;68.30
82171;BME280;71755;48.038;14.346;2023-10-19T13:08:11;95662.44;;;14.15;66.70
82171;BME280;71755;48.038;14.346;2023-10-19T13:10:46;95650.13;;;14.22;66.62
82171;BME280;71755;48.038;14.346;2023-10-19T13:13:13;95645.72;;;14.18;65.44
82171;BME280;71755;48.038;14.346;2023-10-19T13:15:45;95645.38;;;13.62;68.15
82171;BME280;71755;48.038;14.346;2023-10-19T13:18:14;95638.28;;;13.66;68.60
82171;BME280;71755;48.038;14.346;2023-10-19T13:20:46;95637.31;;;13.54;69.00
82171;BME280;71755;48.038;14.346;2023-10-19T13:23:14;95628.50;;;13.62;69.15
82171;BME280;71755;48.038;14.346;2023-10-19T13:25:47;95623.06;;;13.93;68.72
82171;BME280;71755;48.038;14.346;2023-10-19T13:28:20;95614.84;;;13.98;67.48
82171;BME280;71755;48.038;14.346;2023-10-19T13:30:52;95612.81;;;13.95;67.54
82171;BME280;71755;48.038;14.346;2023-10-19T13:33:22;95626.53;;;13.93;68.55